Time;durP1;ratioP1;P1;durP2;ratioP2;P2;SDS_P1;SDS_P2;PMS_P1;PMS_P2;Temp;Humidity;BMP_temperature;BMP_pressure;BME280_temperature;BME280_humidity;BME280_pressure;Samples;Min_cycle;Max_cycle;Signal;HPM_P1;HPM_P2
2022/05/02 00:03:35;;;;;;;39.17;27.10;;;;;;;8.62;100.00;100620.59;21033697;28;20166;-70
2022/05/02 00:13:36;;;;;;;35.90;26.00;;;;;;;8.57;100.00;100611.91;21034850;28;20040;-69
2022/05/02 00:23:38;;;;;;;39.28;25.85;;;;;;;8.59;100.00;100598.00;21032702;28;20048;-69
2022/05/02 00:33:39;;;;;;;34.83;24.42;;;;;;;8.76;100.00;100600.53;21033159;28;20050;-69
2022/05/02 00:43:41;;;;;;;34.53;22.65;;;;;;;8.68;100.00;100590.13;21033349;28;20047;-69
2022/05/02 00:53:45;;;;;;;40.95;23.77;;;;;;;8.61;100.00;100583.19;21033064;28;20052;-68
2022/05/02 01:03:47;;;;;;;34.53;24.45;;;;;;;8.53;100.00;100581.50;21029715;28;20455;-68
2022/05/02 01:13:49;;;;;;;32.67;23.02;;;;;;;8.55;100.00;100583.22;21035427;28;20051;-68
2022/05/02 01:23:53;;;;;;;33.83;24.00;;;;;;;8.44;100.00;100583.28;21034498;28;20081;-68
2022/05/02 01:33:55;;;;;;;33.15;22.83;;;;;;;8.42;100.00;100578.94;21027155;28;20060;-69
2022/05/02 01:43:56;;;;;;;31.98;21.58;;;;;;;8.21;100.00;100574.63;21027243;28;20062;-68
2022/05/02 01:53:58;;;;;;;34.05;22.65;;;;;;;8.14;100.00;100570.31;21026208;28;20044;-68
2022/05/02 02:04:00;;;;;;;37.55;24.05;;;;;;;8.10;100.00;100564.25;21024366;28;20566;-69
2022/05/02 02:14:02;;;;;;;40.50;24.33;;;;;;;8.19;100.00;100563.31;21026042;28;20055;-68
2022/05/02 02:24:04;;;;;;;33.05;22.23;;;;;;;8.07;100.00;100555.56;21025592;28;20047;-67
2022/05/02 02:34:06;;;;;;;35.35;22.23;;;;;;;7.87;100.00;100561.69;21024003;28;20089;-67
2022/05/02 02:44:07;;;;;;;40.35;25.17;;;;;;;7.79;100.00;100558.22;21023648;28;20056;-67
2022/05/02 02:54:09;;;;;;;37.55;24.83;;;;;;;7.78;100.00;100551.28;21019405;28;20044;-68
2022/05/02 03:14:31;;;;;;;33.72;22.52;;;;;;;7.60;100.00;100527.84;21020473;28;20090;-67
2022/05/02 03:24:32;;;;;;;34.50;21.58;;;;;;;7.63;100.00;100533.06;21018078;28;20060;-67
2022/05/02 03:34:34;;;;;;;38.13;22.40;;;;;;;7.53;100.00;100539.16;21020942;28;20397;-67
2022/05/02 03:44:35;;;;;;;33.83;22.35;;;;;;;7.43;100.00;100533.09;21021200;28;20060;-66
2022/05/02 03:54:37;;;;;;;31.77;21.33;;;;;;;7.32;100.00;100530.47;21029606;28;20052;-67
2022/05/02 04:04:39;;;;;;;32.90;20.55;;;;;;;7.31;100.00;100539.16;21033323;28;20427;-67
2022/05/02 04:14:40;;;;;;;31.13;20.48;;;;;;;7.29;100.00;100535.72;21036010;28;20109;-67
2022/05/02 04:24:42;;;;;;;31.80;20.98;;;;;;;7.37;100.00;100528.75;21033666;28;20086;-67
2022/05/02 04:34:43;;;;;;;35.05;21.35;;;;;;;7.50;100.00;100532.22;21029691;28;20532;-67
2022/05/02 04:44:45;;;;;;;33.67;20.10;;;;;;;7.68;100.00;100539.16;21032536;28;20044;-67
2022/05/02 04:54:48;;;;;;;32.60;18.58;;;;;;;7.86;100.00;100539.13;21032894;28;20054;-67
2022/05/02 05:04:50;;;;;;;28.02;17.33;;;;;;;8.12;100.00;100535.56;21030714;28;20048;-67
2022/05/02 05:25:36;;;;;;;24.55;16.02;;;;;;;8.71;100.00;100529.19;21028316;28;20075;-68
2022/05/02 05:35:49;;;;;;;24.77;16.13;;;;;;;9.10;100.00;100530.69;21028349;28;20197;-67
2022/05/02 05:46:12;;;;;;;25.10;15.40;;;;;;;9.45;100.00;100533.00;21027707;28;20052;-68
2022/05/02 05:56:30;;;;;;;22.50;14.70;;;;;;;9.87;100.00;100524.72;21024480;28;20063;-68
2022/05/02 06:06:32;;;;;;;22.30;14.15;;;;;;;10.19;100.00;100525.22;21024731;28;20048;-68
2022/05/02 06:27:01;;;;;;;20.33;13.53;;;;;;;10.90;100.00;100521.69;21023026;28;20131;-68
2022/05/02 06:37:17;;;;;;;24.08;13.93;;;;;;;10.96;100.00;100521.59;21022545;28;20717;-68
2022/05/02 06:47:21;;;;;;;19.50;14.25;;;;;;;11.24;99.52;100522.88;21020329;28;20059;-71
2022/05/02 06:57:26;;;;;;;24.50;14.03;;;;;;;11.45;99.90;100526.94;21017439;28;20060;-69
2022/05/02 07:07:51;;;;;;;20.53;13.33;;;;;;;11.98;95.49;100521.63;21016645;28;20044;-68
2022/05/02 07:18:21;;;;;;;23.15;14.05;;;;;;;12.30;93.69;100519.19;21007822;28;20052;-68
2022/05/02 07:28:45;;;;;;;21.77;14.32;;;;;;;12.52;94.40;100524.00;21019094;28;20102;-70
2022/05/02 07:38:53;;;;;;;21.88;14.73;;;;;;;12.67;91.89;100520.16;21029548;28;20048;-70
2022/05/02 07:48:57;;;;;;;19.48;12.50;;;;;;;13.03;88.50;100516.69;21028700;28;20147;-69
2022/05/02 07:58:59;;;;;;;19.08;12.82;;;;;;;13.06;85.93;100511.34;21035843;28;20089;-68
2022/05/02 08:09:14;;;;;;;20.38;12.75;;;;;;;13.46;85.13;100514.78;21026774;28;20409;-68
2022/05/02 08:19:24;;;;;;;;;;;;;;;13.47;85.55;100522.66;21031305;28;20060;-69
2022/05/02 08:29:39;;;;;;;15.57;11.38;;;;;;;14.19;83.40;100517.19;21026170;28;19920;-69
2022/05/02 08:39:46;;;;;;;18.00;11.38;;;;;;;14.40;81.99;100511.28;21026699;28;20447;-68
2022/05/02 08:50:15;;;;;;;17.25;11.38;;;;;;;14.93;76.96;100511.44;21024786;28;20518;-68
2022/05/02 09:00:35;;;;;;;17.50;11.52;;;;;;;14.82;81.02;100508.31;21024913;28;20097;-68
2022/05/02 09:11:07;;;;;;;20.88;14.23;;;;;;;14.58;77.93;100497.59;21026615;28;20048;-68
2022/05/02 09:21:40;;;;;;;19.58;12.95;;;;;;;14.77;78.28;100489.13;21008604;28;20048;-69
2022/05/02 09:31:44;;;;;;;21.40;15.02;;;;;;;14.64;76.51;100483.38;21022363;28;20049;-68
2022/05/02 09:42:14;;;;;;;17.40;12.40;;;;;;;15.26;71.41;100466.44;21007505;28;20044;-69
2022/05/02 09:52:28;;;;;;;19.13;13.47;;;;;;;15.37;74.15;100465.13;21020768;28;20488;-69
2022/05/02 10:02:35;;;;;;;16.83;12.82;;;;;;;16.21;70.38;100452.47;21015648;28;20125;-69
2022/05/02 10:12:59;;;;;;;20.15;14.52;;;;;;;16.34;69.40;100445.81;21014750;28;20046;-68
2022/05/02 10:23:26;;;;;;;16.42;13.30;;;;;;;16.91;69.81;100436.47;21025227;28;20121;-69
2022/05/02 10:33:42;;;;;;;19.08;12.07;;;;;;;17.19;67.63;100433.53;20994411;28;20036;-69
2022/05/02 10:43:55;;;;;;;17.92;13.35;;;;;;;17.26;60.50;100426.22;21012096;28;20048;-70
2022/05/02 10:54:04;;;;;;;19.30;12.70;;;;;;;17.33;62.22;100412.66;21018824;28;20047;-69
2022/05/02 11:04:29;;;;;;;17.02;11.45;;;;;;;17.31;59.08;100405.72;21018491;28;20098;-70
2022/05/02 11:14:49;;;;;;;;;;;;;;;17.66;54.69;100389.13;21026095;28;20400;-69
2022/05/02 11:25:34;;;;;;;16.30;10.05;;;;;;;17.57;53.09;100383.38;21036465;28;19920;-69
2022/05/02 11:35:37;;;;;;;20.23;11.27;;;;;;;17.94;54.21;100378.16;21020171;28;20052;-69
2022/05/02 11:45:45;;;;;;;16.67;11.20;;;;;;;17.88;52.73;100374.94;21022886;28;20049;-69
2022/05/02 11:55:46;;;;;;;15.30;9.98;;;;;;;17.81;52.16;100363.75;21028040;28;20099;-69
2022/05/02 12:06:01;;;;;;;17.05;11.70;;;;;;;17.82;51.83;100364.63;21027263;28;20057;-69
2022/05/02 12:16:08;;;;;;;12.57;8.67;;;;;;;18.18;51.33;100341.69;21024394;28;20055;-68
2022/05/02 12:26:20;;;;;;;14.15;8.25;;;;;;;18.34;51.41;100336.50;21020380;28;20052;-69
2022/05/02 12:36:35;;;;;;;15.43;9.57;;;;;;;18.73;51.70;100316.06;21021682;28;20079;-70
2022/05/02 12:46:39;;;;;;;13.07;10.15;;;;;;;18.64;51.16;100318.22;21019526;28;20044;-69
2022/05/02 13:07:28;;;;;;;13.48;8.13;;;;;;;19.26;49.23;100286.75;21027931;28;20060;-69
2022/05/02 13:17:31;;;;;;;11.02;7.75;;;;;;;19.31;47.78;100273.25;21022810;28;20469;-69
2022/05/02 13:27:39;;;;;;;10.70;7.18;;;;;;;19.55;47.76;100268.41;21016951;28;20056;-70
2022/05/02 13:38:09;;;;;;;10.98;6.22;;;;;;;19.65;47.00;100253.69;21012925;28;20500;-70
2022/05/02 13:48:28;;;;;;;13.80;8.50;;;;;;;19.97;47.37;100251.84;21020586;28;20049;-70
2022/05/02 13:58:35;;;;;;;12.68;8.30;;;;;;;19.89;47.04;100244.34;21013146;28;20040;-69
2022/05/02 14:08:39;;;;;;;9.40;5.80;;;;;;;20.09;47.65;100243.19;21016809;28;20484;-69
2022/05/02 14:18:50;;;;;;;9.90;7.18;;;;;;;20.11;45.74;100241.28;21018172;28;20043;-69
2022/05/02 14:28:54;;;;;;;8.88;6.88;;;;;;;20.29;47.34;100233.22;21015629;28;20044;-69
2022/05/02 14:38:55;;;;;;;12.43;8.17;;;;;;;19.86;45.47;100227.72;21019537;28;20056;-70
2022/05/02 14:48:58;;;;;;;11.13;8.32;;;;;;;19.60;48.09;100218.56;21019213;28;20048;-69
2022/05/02 14:59:01;;;;;;;11.13;7.50;;;;;;;19.76;46.59;100213.25;21018472;28;20110;-69
2022/05/02 15:09:02;;;;;;;13.30;8.30;;;;;;;19.83;45.41;100204.81;21014550;28;20467;-69
2022/05/02 15:19:36;;;;;;;10.52;7.47;;;;;;;19.66;48.50;100199.63;21018141;28;20090;-69
2022/05/02 15:40:40;;;;;;;9.05;7.03;;;;;;;19.30;48.24;100189.19;21014694;28;20040;-70
2022/05/02 15:50:42;;;;;;;9.20;6.70;;;;;;;19.54;47.47;100182.53;21028606;28;20109;-70
2022/05/02 16:00:57;;;;;;;10.60;6.95;;;;;;;19.40;47.66;100183.31;21022666;28;20467;-70
2022/05/02 16:11:02;;;;;;;11.85;6.95;;;;;;;19.36;49.05;100180.94;21028280;28;20053;-69
2022/05/02 16:21:04;;;;;;;;;;;;;;;20.21;47.17;100173.34;21031041;28;20048;-70
2022/05/02 16:31:08;;;;;;;10.63;6.65;;;;;;;20.29;46.77;100162.28;21031960;28;20376;-70
2022/05/02 16:41:16;;;;;;;8.93;5.93;;;;;;;19.92;46.36;100163.56;21024435;28;20043;-70
2022/05/02 16:51:22;;;;;;;8.80;6.05;;;;;;;19.83;47.04;100158.78;21027528;28;20048;-70
2022/05/02 17:01:24;;;;;;;10.57;6.25;;;;;;;19.90;48.33;100154.84;21023062;28;20056;-70
2022/05/02 17:11:25;;;;;;;12.25;7.18;;;;;;;19.57;49.05;100161.13;21023070;28;20139;-71
2022/05/02 17:21:33;;;;;;;10.98;7.32;;;;;;;19.22;50.32;100152.47;21016612;28;20098;-70
2022/05/02 17:31:36;;;;;;;10.10;6.63;;;;;;;18.82;51.24;100162.59;21022329;28;20059;-70
2022/05/02 17:41:38;;;;;;;9.87;6.97;;;;;;;18.75;51.81;100166.53;21016705;28;20578;-69
2022/05/02 17:51:41;;;;;;;12.13;6.80;;;;;;;18.55;53.16;100156.09;21023415;28;20078;-70
2022/05/02 18:01:42;;;;;;;10.43;6.50;;;;;;;18.24;55.31;100164.75;21022898;28;20503;-70
2022/05/02 18:22:10;;;;;;;12.35;6.25;;;;;;;17.58;61.57;100181.22;21016093;28;20043;-71
2022/05/02 18:32:27;;;;;;;10.68;6.53;;;;;;;16.93;65.74;100184.25;21017974;28;20052;-70
2022/05/02 18:42:34;;;;;;;9.75;7.00;;;;;;;16.51;69.74;100192.28;21017431;28;20056;-70
2022/05/02 18:52:58;;;;;;;8.63;6.45;;;;;;;15.87;74.29;100200.28;21016589;28;20051;-70
2022/05/02 19:03:04;;;;;;;8.98;6.68;;;;;;;15.44;76.77;100209.00;21012898;28;20480;-69
2022/05/02 19:13:08;;;;;;;10.30;7.03;;;;;;;15.00;79.62;100222.94;21012345;28;20444;-70
2022/05/02 19:23:29;;;;;;;10.82;6.80;;;;;;;14.78;81.95;100224.63;21020390;28;20083;-69
2022/05/02 19:33:40;;;;;;;10.90;6.90;;;;;;;14.57;82.56;100227.13;21029642;28;20048;-70
2022/05/02 19:43:44;;;;;;;12.00;7.87;;;;;;;14.37;83.62;100240.06;21030696;28;20043;-70
2022/05/02 19:53:46;;;;;;;12.32;8.05;;;;;;;14.07;85.46;100244.59;21029745;28;20040;-70
2022/05/02 20:03:49;;;;;;;12.85;8.68;;;;;;;13.88;86.26;100246.94;21028656;28;20044;-69
2022/05/02 20:13:53;;;;;;;14.63;9.65;;;;;;;13.56;89.39;100247.97;21028573;28;20581;-70
2022/05/02 20:23:59;;;;;;;11.87;8.77;;;;;;;13.33;90.83;100257.41;21027150;28;20586;-69
2022/05/02 20:44:32;;;;;;;15.82;9.23;;;;;;;12.97;91.61;100248.75;21023298;28;20048;-70
2022/05/02 20:54:33;;;;;;;15.30;10.70;;;;;;;12.90;91.84;100255.09;21024566;28;20089;-69
2022/05/02 21:04:35;;;;;;;13.10;9.25;;;;;;;12.72;92.50;100255.59;21024584;28;20469;-69
2022/05/02 21:14:46;;;;;;;13.45;9.55;;;;;;;12.68;91.98;100251.31;21025255;28;20040;-70
2022/05/02 21:25:12;;;;;;;16.55;9.70;;;;;;;12.53;93.12;100257.84;21024343;28;20705;-69
2022/05/02 21:35:15;;;;;;;13.20;9.30;;;;;;;12.45;93.46;100247.50;21022029;28;20519;-69
2022/05/02 21:45:17;;;;;;;14.35;10.20;;;;;;;12.30;94.46;100256.66;21023319;28;20056;-68
2022/05/02 21:55:18;;;;;;;14.35;9.85;;;;;;;12.24;93.68;100248.06;21022581;28;20065;-68
2022/05/02 22:05:20;;;;;;;13.20;9.93;;;;;;;12.11;96.98;100246.66;21017725;28;20040;-68
2022/05/02 22:15:25;;;;;;;14.25;9.88;;;;;;;12.01;95.51;100246.00;21028078;28;20036;-69
2022/05/02 22:25:26;;;;;;;15.53;9.93;;;;;;;12.02;94.46;100253.81;21025065;28;20048;-69
2022/05/02 22:35:31;;;;;;;13.23;9.77;;;;;;;11.86;96.75;100259.50;21025267;28;20106;-69
2022/05/02 22:45:32;;;;;;;14.70;9.80;;;;;;;11.75;97.38;100272.84;21024072;28;20052;-69
2022/05/02 22:55:34;;;;;;;15.35;11.45;;;;;;;11.60;99.49;100275.78;21023679;28;20132;-69
2022/05/02 23:05:45;;;;;;;13.70;10.50;;;;;;;11.49;100.00;100279.50;21023357;28;20052;-68
2022/05/02 23:15:48;;;;;;;14.73;10.85;;;;;;;11.42;100.00;100270.03;21023538;28;20040;-68
2022/05/02 23:25:51;;;;;;;16.58;11.05;;;;;;;11.25;100.00;100261.66;21023822;28;20047;-67
2022/05/02 23:36:09;;;;;;;16.00;11.45;;;;;;;11.22;100.00;100264.38;21022126;28;20044;-67
2022/05/02 23:46:32;;;;;;;13.23;10.63;;;;;;;11.35;100.00;100252.69;21022482;28;20040;-67
2022/05/02 23:56:49;;;;;;;15.77;11.30;;;;;;;11.38;100.00;100250.03;21021486;28;20113;-67
